sensor_id;sensor_type;location;lat;lon;timestamp;pressure;altitude;pressure_sealevel;temperature;humidity
47280;BME280;34064;44.942;0.008;2023-06-22T00:00:57;98254.16;;;24.54;66.59
47280;BME280;34064;44.942;0.008;2023-06-22T00:03:24;98261.94;;;24.51;66.92
47280;BME280;34064;44.942;0.008;2023-06-22T00:05:51;98267.59;;;24.49;66.72
47280;BME280;34064;44.942;0.008;2023-06-22T00:08:19;98265.31;;;24.46;66.64
47280;BME280;34064;44.942;0.008;2023-06-22T00:10:46;98250.06;;;24.45;66.92
47280;BME280;34064;44.942;0.008;2023-06-22T00:13:13;98248.41;;;24.44;67.05
47280;BME280;34064;44.942;0.008;2023-06-22T00:15:41;98249.69;;;24.41;66.78
47280;BME280;34064;44.942;0.008;2023-06-22T00:18:09;98252.41;;;24.41;66.64
47280;BME280;34064;44.942;0.008;2023-06-22T00:20:36;98255.13;;;24.41;66.85
47280;BME280;34064;44.942;0.008;2023-06-22T00:23:04;98259.78;;;24.34;67.13
47280;BME280;34064;44.942;0.008;2023-06-22T00:25:35;98265.66;;;24.24;67.18
47280;BME280;34064;44.942;0.008;2023-06-22T00:28:02;98275.31;;;24.20;67.13
47280;BME280;34064;44.942;0.008;2023-06-22T00:30:30;98276.16;;;24.14;67.44
47280;BME280;34064;44.942;0.008;2023-06-22T00:32:57;98287.09;;;24.07;67.51
47280;BME280;34064;44.942;0.008;2023-06-22T00:35:25;98295.03;;;24.02;67.45
47280;BME280;34064;44.942;0.008;2023-06-22T00:37:58;98295.47;;;23.99;67.44
47280;BME280;34064;44.942;0.008;2023-06-22T00:40:31;98306.97;;;23.94;67.20
47280;BME280;34064;44.942;0.008;2023-06-22T00:42:58;98310.31;;;23.90;67.56
47280;BME280;34064;44.942;0.008;2023-06-22T00:45:25;98327.81;;;23.87;67.49
47280;BME280;34064;44.942;0.008;2023-06-22T00:47:57;98332.88;;;23.77;67.54
47280;BME280;34064;44.942;0.008;2023-06-22T00:50:28;98359.81;;;23.72;67.76
47280;BME280;34064;44.942;0.008;2023-06-22T00:53:01;98357.34;;;23.63;67.66
47280;BME280;34064;44.942;0.008;2023-06-22T00:55:33;98360.22;;;23.62;67.91
47280;BME280;34064;44.942;0.008;2023-06-22T00:58:06;98373.19;;;23.53;68.00
47280;BME280;34064;44.942;0.008;2023-06-22T01:00:42;98368.00;;;23.45;67.80
47280;BME280;34064;44.942;0.008;2023-06-22T01:03:08;98376.56;;;23.42;67.83
47280;BME280;34064;44.942;0.008;2023-06-22T01:05:35;98375.09;;;23.39;68.10
47280;BME280;34064;44.942;0.008;2023-06-22T01:08:08;98379.72;;;23.32;68.23
47280;BME280;34064;44.942;0.008;2023-06-22T01:16:17;98381.16;;;23.21;67.78
47280;BME280;34064;44.942;0.008;2023-06-22T01:18:49;98376.16;;;23.11;68.17
47280;BME280;34064;44.942;0.008;2023-06-22T01:21:19;98383.44;;;23.11;67.84
47280;BME280;34064;44.942;0.008;2023-06-22T01:24:07;98383.22;;;23.05;67.79
47280;BME280;34064;44.942;0.008;2023-06-22T01:29:05;98389.50;;;22.99;67.71
47280;BME280;34064;44.942;0.008;2023-06-22T01:31:34;98395.53;;;22.95;67.76
47280;BME280;34064;44.942;0.008;2023-06-22T01:34:04;98403.22;;;22.84;67.51
47280;BME280;34064;44.942;0.008;2023-06-22T01:36:32;98402.81;;;22.81;67.74
47280;BME280;34064;44.942;0.008;2023-06-22T01:38:59;98398.63;;;22.78;68.02
47280;BME280;34064;44.942;0.008;2023-06-22T01:41:28;98399.47;;;22.79;67.73
47280;BME280;34064;44.942;0.008;2023-06-22T01:43:56;98399.03;;;22.68;68.06
47280;BME280;34064;44.942;0.008;2023-06-22T01:46:23;98388.22;;;22.68;67.98
47280;BME280;34064;44.942;0.008;2023-06-22T01:48:51;98388.44;;;22.67;67.81
47280;BME280;34064;44.942;0.008;2023-06-22T01:51:17;98377.38;;;22.68;67.74
47280;BME280;34064;44.942;0.008;2023-06-22T01:53:44;98375.31;;;22.64;67.65
47280;BME280;34064;44.942;0.008;2023-06-22T01:56:10;98372.38;;;22.58;67.81
47280;BME280;34064;44.942;0.008;2023-06-22T01:58:41;98367.78;;;22.59;67.94
47280;BME280;34064;44.942;0.008;2023-06-22T02:01:12;98358.00;;;22.58;67.36
47280;BME280;34064;44.942;0.008;2023-06-22T02:03:50;98367.38;;;22.55;67.72
47280;BME280;34064;44.942;0.008;2023-06-22T02:06:27;98377.16;;;22.50;67.90
47280;BME280;34064;44.942;0.008;2023-06-22T02:09:02;98379.00;;;22.49;68.03
47280;BME280;34064;44.942;0.008;2023-06-22T02:11:30;98378.59;;;22.52;68.07
47280;BME280;34064;44.942;0.008;2023-06-22T02:13:58;98378.00;;;22.57;68.14
47280;BME280;34064;44.942;0.008;2023-06-22T02:16:25;98376.56;;;22.61;67.84
47280;BME280;34064;44.942;0.008;2023-06-22T02:18:55;98381.53;;;22.64;67.96
47280;BME280;34064;44.942;0.008;2023-06-22T02:21:24;98375.50;;;22.69;67.64
47280;BME280;34064;44.942;0.008;2023-06-22T02:23:50;98375.72;;;22.67;68.14
47280;BME280;34064;44.942;0.008;2023-06-22T02:26:17;98367.19;;;22.70;67.82
47280;BME280;34064;44.942;0.008;2023-06-22T02:28:44;98361.97;;;22.75;67.69
47280;BME280;34064;44.942;0.008;2023-06-22T02:31:11;98359.91;;;22.78;67.77
47280;BME280;34064;44.942;0.008;2023-06-22T02:33:37;98356.56;;;22.75;67.88
47280;BME280;34064;44.942;0.008;2023-06-22T02:36:04;98349.91;;;22.78;68.00
47280;BME280;34064;44.942;0.008;2023-06-22T02:38:32;98356.56;;;22.75;68.08
47280;BME280;34064;44.942;0.008;2023-06-22T02:41:00;98363.66;;;22.77;68.10
47280;BME280;34064;44.942;0.008;2023-06-22T02:43:27;98364.06;;;22.73;67.92
47280;BME280;34064;44.942;0.008;2023-06-22T02:45:54;98358.63;;;22.73;67.95
47280;BME280;34064;44.942;0.008;2023-06-22T02:48:20;98352.00;;;22.76;67.92
47280;BME280;34064;44.942;0.008;2023-06-22T02:50:46;98349.06;;;22.78;67.87
47280;BME280;34064;44.942;0.008;2023-06-22T02:53:13;98341.59;;;22.80;68.02
47280;BME280;34064;44.942;0.008;2023-06-22T02:55:39;98347.41;;;22.83;67.68
47280;BME280;34064;44.942;0.008;2023-06-22T02:58:06;98348.84;;;22.79;67.58
47280;BME280;34064;44.942;0.008;2023-06-22T03:00:32;98354.50;;;22.78;68.10
47280;BME280;34064;44.942;0.008;2023-06-22T03:02:59;98354.28;;;22.79;67.99
47280;BME280;34064;44.942;0.008;2023-06-22T03:05:25;98350.75;;;22.79;67.89
47280;BME280;34064;44.942;0.008;2023-06-22T03:07:52;98362.59;;;22.78;67.97
47280;BME280;34064;44.942;0.008;2023-06-22T03:10:18;98364.06;;;22.80;68.18
47280;BME280;34064;44.942;0.008;2023-06-22T03:12:44;98375.75;;;22.81;68.09
47280;BME280;34064;44.942;0.008;2023-06-22T03:15:12;98369.47;;;22.80;67.97
47280;BME280;34064;44.942;0.008;2023-06-22T03:17:39;98376.56;;;22.81;67.66
47280;BME280;34064;44.942;0.008;2023-06-22T03:20:07;98381.16;;;22.81;68.03
47280;BME280;34064;44.942;0.008;2023-06-22T03:22:39;98389.47;;;22.79;68.04
47280;BME280;34064;44.942;0.008;2023-06-22T03:25:09;98392.00;;;22.81;67.67
47280;BME280;34064;44.942;0.008;2023-06-22T03:27:39;98393.03;;;22.80;67.76
47280;BME280;34064;44.942;0.008;2023-06-22T03:30:07;98396.56;;;22.80;68.11
47280;BME280;34064;44.942;0.008;2023-06-22T03:32:33;98405.53;;;22.81;67.78
47280;BME280;34064;44.942;0.008;2023-06-22T03:34:59;98414.69;;;22.80;67.79
47280;BME280;34064;44.942;0.008;2023-06-22T03:37:27;98407.16;;;22.82;68.07
47280;BME280;34064;44.942;0.008;2023-06-22T03:39:53;98416.13;;;22.82;67.89
47280;BME280;34064;44.942;0.008;2023-06-22T03:42:20;98420.28;;;22.78;68.22
47280;BME280;34064;44.942;0.008;2023-06-22T03:44:46;98423.84;;;22.79;67.98
47280;BME280;34064;44.942;0.008;2023-06-22T03:47:13;98426.94;;;22.75;68.28
47280;BME280;34064;44.942;0.008;2023-06-22T03:49:39;98427.81;;;22.76;68.36
47280;BME280;34064;44.942;0.008;2023-06-22T03:52:06;98439.44;;;22.77;68.18
47280;BME280;34064;44.942;0.008;2023-06-22T03:54:32;98443.19;;;22.75;68.52
47280;BME280;34064;44.942;0.008;2023-06-22T03:56:59;98448.59;;;22.75;68.62
47280;BME280;34064;44.942;0.008;2023-06-22T03:59:26;98454.00;;;22.69;68.53
47280;BME280;34064;44.942;0.008;2023-06-22T04:01:52;98451.50;;;22.67;68.84
47280;BME280;34064;44.942;0.008;2023-06-22T04:04:19;98449.22;;;22.71;69.01
47280;BME280;34064;44.942;0.008;2023-06-22T04:06:45;98457.75;;;22.68;68.44
47280;BME280;34064;44.942;0.008;2023-06-22T04:09:12;98459.22;;;22.64;69.08
47280;BME280;34064;44.942;0.008;2023-06-22T04:11:39;98466.47;;;22.63;68.84
47280;BME280;34064;44.942;0.008;2023-06-22T04:14:05;98470.66;;;22.59;68.99
47280;BME280;34064;44.942;0.008;2023-06-22T04:16:31;98470.22;;;22.55;68.70
47280;BME280;34064;44.942;0.008;2023-06-22T04:18:58;98477.50;;;22.55;68.78
47280;BME280;34064;44.942;0.008;2023-06-22T04:21:24;98475.00;;;22.53;69.19
47280;BME280;34064;44.942;0.008;2023-06-22T04:23:50;98474.19;;;22.53;69.09
47280;BME280;34064;44.942;0.008;2023-06-22T04:26:17;98473.97;;;22.54;69.20
47280;BME280;34064;44.942;0.008;2023-06-22T04:28:44;98473.13;;;22.54;68.87
47280;BME280;34064;44.942;0.008;2023-06-22T04:31:18;98480.63;;;22.52;69.08
47280;BME280;34064;44.942;0.008;2023-06-22T04:33:45;98480.63;;;22.52;68.92
47280;BME280;34064;44.942;0.008;2023-06-22T04:36:12;98482.69;;;22.50;69.19
47280;BME280;34064;44.942;0.008;2023-06-22T04:38:41;98482.69;;;22.50;69.11
47280;BME280;34064;44.942;0.008;2023-06-22T04:41:08;98479.34;;;22.48;68.97
47280;BME280;34064;44.942;0.008;2023-06-22T04:43:40;98487.06;;;22.51;68.96
47280;BME280;34064;44.942;0.008;2023-06-22T04:46:06;98486.81;;;22.46;69.01
47280;BME280;34064;44.942;0.008;2023-06-22T04:48:32;98486.81;;;22.46;68.77
47280;BME280;34064;44.942;0.008;2023-06-22T04:51:00;98483.09;;;22.47;69.07
47280;BME280;34064;44.942;0.008;2023-06-22T04:53:30;98483.09;;;22.47;68.84
47280;BME280;34064;44.942;0.008;2023-06-22T04:55:56;98479.97;;;22.50;69.01
47280;BME280;34064;44.942;0.008;2023-06-22T04:58:23;98477.91;;;22.52;69.04
47280;BME280;34064;44.942;0.008;2023-06-22T05:00:53;98478.13;;;22.57;68.78
47280;BME280;34064;44.942;0.008;2023-06-22T05:03:19;98471.69;;;22.58;68.73
47280;BME280;34064;44.942;0.008;2023-06-22T05:05:45;98477.09;;;22.58;68.94
47280;BME280;34064;44.942;0.008;2023-06-22T05:08:13;98488.31;;;22.55;68.87
47280;BME280;34064;44.942;0.008;2023-06-22T05:10:39;98490.00;;;22.56;68.99
47280;BME280;34064;44.942;0.008;2023-06-22T05:13:05;98490.63;;;22.58;68.95
47280;BME280;34064;44.942;0.008;2023-06-22T05:15:32;98488.56;;;22.60;69.14
47280;BME280;34064;44.942;0.008;2023-06-22T05:18:03;98493.53;;;22.63;68.66
47280;BME280;34064;44.942;0.008;2023-06-22T05:20:31;98491.47;;;22.65;68.86
47280;BME280;34064;44.942;0.008;2023-06-22T05:22:58;98492.31;;;22.66;68.61
47280;BME280;34064;44.942;0.008;2023-06-22T05:25:24;98494.81;;;22.67;68.90
47280;BME280;34064;44.942;0.008;2023-06-22T05:27:51;98499.19;;;22.68;68.71
47280;BME280;34064;44.942;0.008;2023-06-22T05:30:17;98502.31;;;22.65;68.86
47280;BME280;34064;44.942;0.008;2023-06-22T05:32:44;98504.19;;;22.65;69.00
47280;BME280;34064;44.942;0.008;2023-06-22T05:35:11;98506.03;;;22.64;68.92
47280;BME280;34064;44.942;0.008;2023-06-22T05:37:37;98504.81;;;22.67;69.24
47280;BME280;34064;44.942;0.008;2023-06-22T05:40:04;98515.03;;;22.71;68.98
47280;BME280;34064;44.942;0.008;2023-06-22T05:42:30;98511.91;;;22.74;69.01
47280;BME280;34064;44.942;0.008;2023-06-22T05:44:57;98509.19;;;22.74;68.85
47280;BME280;34064;44.942;0.008;2023-06-22T05:47:24;98510.06;;;22.75;68.90
47280;BME280;34064;44.942;0.008;2023-06-22T05:49:51;98505.25;;;22.77;69.00
47280;BME280;34064;44.942;0.008;2023-06-22T05:52:17;98508.59;;;22.79;68.62
47280;BME280;34064;44.942;0.008;2023-06-22T05:54:44;98506.72;;;22.86;68.93
47280;BME280;34064;44.942;0.008;2023-06-22T05:57:10;98513.63;;;22.89;68.75
47280;BME280;34064;44.942;0.008;2023-06-22T05:59:36;98519.44;;;22.86;68.83
47280;BME280;34064;44.942;0.008;2023-06-22T06:02:03;98515.69;;;22.87;68.82
47280;BME280;34064;44.942;0.008;2023-06-22T06:04:29;98517.38;;;22.88;68.63
47280;BME280;34064;44.942;0.008;2023-06-22T06:06:56;98519.88;;;22.89;68.54
47280;BME280;34064;44.942;0.008;2023-06-22T06:09:23;98536.13;;;22.89;68.62
47280;BME280;34064;44.942;0.008;2023-06-22T06:11:49;98530.69;;;22.89;68.89
47280;BME280;34064;44.942;0.008;2023-06-22T06:14:15;98543.22;;;22.90;68.86
47280;BME280;34064;44.942;0.008;2023-06-22T06:16:43;98545.09;;;22.90;68.68
47280;BME280;34064;44.942;0.008;2023-06-22T06:19:09;98550.69;;;22.88;69.28
47280;BME280;34064;44.942;0.008;2023-06-22T06:21:35;98556.97;;;22.89;69.13
47280;BME280;34064;44.942;0.008;2023-06-22T06:24:02;98551.94;;;22.86;69.05
47280;BME280;34064;44.942;0.008;2023-06-22T06:26:29;98557.34;;;22.86;69.25
47280;BME280;34064;44.942;0.008;2023-06-22T06:28:56;98563.41;;;22.88;69.01
47280;BME280;34064;44.942;0.008;2023-06-22T06:31:23;98565.50;;;22.93;69.24
47280;BME280;34064;44.942;0.008;2023-06-22T06:33:50;98570.28;;;22.90;69.38
47280;BME280;34064;44.942;0.008;2023-06-22T06:36:16;98572.16;;;22.90;68.93
47280;BME280;34064;44.942;0.008;2023-06-22T06:38:43;98579.66;;;22.88;69.32
47280;BME280;34064;44.942;0.008;2023-06-22T06:41:09;98582.38;;;22.88;69.15
47280;BME280;34064;44.942;0.008;2023-06-22T06:43:35;98579.22;;;22.91;69.06
47280;BME280;34064;44.942;0.008;2023-06-22T06:46:02;98591.13;;;22.90;69.22
47280;BME280;34064;44.942;0.008;2023-06-22T06:48:29;98597.78;;;22.94;69.04
47280;BME280;34064;44.942;0.008;2023-06-22T06:50:55;98596.75;;;22.95;68.97
47280;BME280;34064;44.942;0.008;2023-06-22T06:53:22;98602.16;;;22.95;69.12
47280;BME280;34064;44.942;0.008;2023-06-22T06:55:48;98598.44;;;22.96;68.85
47280;BME280;34064;44.942;0.008;2023-06-22T06:58:14;98600.28;;;22.96;69.00
47280;BME280;34064;44.942;0.008;2023-06-22T07:00:42;98599.88;;;22.99;69.23
47280;BME280;34064;44.942;0.008;2023-06-22T07:03:09;98600.75;;;22.99;69.08
47280;BME280;34064;44.942;0.008;2023-06-22T07:05:36;98600.31;;;23.02;68.78
47280;BME280;34064;44.942;0.008;2023-06-22T07:08:02;98604.31;;;23.06;68.72
47280;BME280;34064;44.942;0.008;2023-06-22T07:10:29;98599.53;;;23.09;68.68
47280;BME280;34064;44.942;0.008;2023-06-22T07:12:55;98601.59;;;23.06;68.82
47280;BME280;34064;44.942;0.008;2023-06-22T07:15:23;98608.25;;;23.11;69.00
47280;BME280;34064;44.942;0.008;2023-06-22T07:17:49;98604.50;;;23.12;68.90
47280;BME280;34064;44.942;0.008;2023-06-22T07:20:16;98602.84;;;23.11;68.73
47280;BME280;34064;44.942;0.008;2023-06-22T07:22:44;98606.19;;;23.13;68.90
47280;BME280;34064;44.942;0.008;2023-06-22T07:25:13;98613.28;;;23.14;68.95
47280;BME280;34064;44.942;0.008;2023-06-22T07:28:04;98614.94;;;23.15;68.68
47280;BME280;34064;44.942;0.008;2023-06-22T07:30:32;98616.63;;;23.16;68.86
47280;BME280;34064;44.942;0.008;2023-06-22T07:32:59;98624.75;;;23.16;68.81
47280;BME280;34064;44.942;0.008;2023-06-22T07:35:33;98632.03;;;23.15;68.93
47280;BME280;34064;44.942;0.008;2023-06-22T07:38:00;98631.19;;;23.15;68.67
47280;BME280;34064;44.942;0.008;2023-06-22T07:40:26;98629.31;;;23.15;69.02
47280;BME280;34064;44.942;0.008;2023-06-22T07:42:53;98628.09;;;23.18;68.82
47280;BME280;34064;44.942;0.008;2023-06-22T07:45:19;98632.50;;;23.19;68.63
47280;BME280;34064;44.942;0.008;2023-06-22T07:47:46;98635.00;;;23.20;68.73
47280;BME280;34064;44.942;0.008;2023-06-22T07:50:12;98633.97;;;23.21;68.83
47280;BME280;34064;44.942;0.008;2023-06-22T07:52:39;98640.41;;;23.20;68.83
47280;BME280;34064;44.942;0.008;2023-06-22T07:55:05;98639.16;;;23.23;68.81
47280;BME280;34064;44.942;0.008;2023-06-22T07:57:32;98640.63;;;23.26;68.64
47280;BME280;34064;44.942;0.008;2023-06-22T08:00:03;98634.78;;;23.22;68.90
47280;BME280;34064;44.942;0.008;2023-06-22T08:02:34;98640.84;;;23.24;68.80
47280;BME280;34064;44.942;0.008;2023-06-22T08:05:00;98637.94;;;23.26;68.64
47280;BME280;34064;44.942;0.008;2023-06-22T08:07:27;98638.34;;;23.29;68.88
47280;BME280;34064;44.942;0.008;2023-06-22T08:09:53;98639.84;;;23.32;68.65
47280;BME280;34064;44.942;0.008;2023-06-22T08:12:19;98633.38;;;23.33;68.53
47280;BME280;34064;44.942;0.008;2023-06-22T08:14:46;98635.47;;;23.38;68.57
47280;BME280;34064;44.942;0.008;2023-06-22T08:17:12;98643.81;;;23.43;68.62
47280;BME280;34064;44.942;0.008;2023-06-22T08:19:40;98649.44;;;23.48;68.41
47280;BME280;34064;44.942;0.008;2023-06-22T08:22:07;98646.72;;;23.48;68.55
47280;BME280;34064;44.942;0.008;2023-06-22T08:24:33;98649.69;;;23.53;68.60
47280;BME280;34064;44.942;0.008;2023-06-22T08:26:59;98656.34;;;23.57;68.40
47280;BME280;34064;44.942;0.008;2023-06-22T08:29:26;98657.84;;;23.60;68.23
47280;BME280;34064;44.942;0.008;2023-06-22T08:31:52;98663.25;;;23.60;68.33
47280;BME280;34064;44.942;0.008;2023-06-22T08:34:18;98652.19;;;23.61;68.37
47280;BME280;34064;44.942;0.008;2023-06-22T08:36:48;98658.25;;;23.63;68.40
47280;BME280;34064;44.942;0.008;2023-06-22T08:39:19;98653.47;;;23.65;68.59
47280;BME280;34064;44.942;0.008;2023-06-22T08:41:47;98661.81;;;23.71;68.45
47280;BME280;34064;44.942;0.008;2023-06-22T08:44:16;98664.72;;;23.69;68.33
47280;BME280;34064;44.942;0.008;2023-06-22T08:46:43;98659.72;;;23.66;68.55
47280;BME280;34064;44.942;0.008;2023-06-22T08:49:09;98664.31;;;23.65;68.24
47280;BME280;34064;44.942;0.008;2023-06-22T08:51:36;98658.44;;;23.68;68.43
47280;BME280;34064;44.942;0.008;2023-06-22T08:54:02;98666.59;;;23.68;68.28
47280;BME280;34064;44.942;0.008;2023-06-22T08:56:29;98668.88;;;23.65;68.63
47280;BME280;34064;44.942;0.008;2023-06-22T08:58:55;98673.03;;;23.67;68.42
47280;BME280;34064;44.942;0.008;2023-06-22T09:01:22;98687.25;;;23.70;68.37
47280;BME280;34064;44.942;0.008;2023-06-22T09:03:48;98684.75;;;23.68;68.15
47280;BME280;34064;44.942;0.008;2023-06-22T09:06:21;98687.25;;;23.70;68.36
47280;BME280;34064;44.942;0.008;2023-06-22T09:08:48;98694.34;;;23.71;68.40
47280;BME280;34064;44.942;0.008;2023-06-22T09:11:15;98699.34;;;23.74;68.34
47280;BME280;34064;44.942;0.008;2023-06-22T09:13:41;98692.91;;;23.75;68.07
47280;BME280;34064;44.942;0.008;2023-06-22T09:16:08;98699.34;;;23.74;68.27
47280;BME280;34064;44.942;0.008;2023-06-22T09:18:35;98705.19;;;23.77;68.25
47280;BME280;34064;44.942;0.008;2023-06-22T09:21:02;98694.78;;;23.81;68.16
47280;BME280;34064;44.942;0.008;2023-06-22T09:23:28;98702.28;;;23.86;68.24
47280;BME280;34064;44.942;0.008;2023-06-22T09:25:55;98711.88;;;23.88;67.87
47280;BME280;34064;44.942;0.008;2023-06-22T09:28:21;98720.03;;;23.88;68.09
47280;BME280;34064;44.942;0.008;2023-06-22T09:30:48;98716.69;;;23.93;68.16
47280;BME280;34064;44.942;0.008;2023-06-22T09:33:14;98721.53;;;23.97;67.88
47280;BME280;34064;44.942;0.008;2023-06-22T09:35:40;98721.53;;;24.04;67.87
47280;BME280;34064;44.942;0.008;2023-06-22T09:38:07;98728.84;;;24.10;67.99
47280;BME280;34064;44.942;0.008;2023-06-22T09:40:33;98724.47;;;24.16;67.87
47280;BME280;34064;44.942;0.008;2023-06-22T09:43:05;98729.69;;;24.24;67.75
47280;BME280;34064;44.942;0.008;2023-06-22T09:45:32;98720.28;;;24.34;67.62
47280;BME280;34064;44.942;0.008;2023-06-22T09:47:58;98723.41;;;24.44;67.13
47280;BME280;34064;44.942;0.008;2023-06-22T09:50:25;98720.94;;;24.49;66.83
47280;BME280;34064;44.942;0.008;2023-06-22T09:52:51;98724.88;;;24.53;67.24
47280;BME280;34064;44.942;0.008;2023-06-22T09:55:21;98729.25;;;24.61;67.10
47280;BME280;34064;44.942;0.008;2023-06-22T09:57:48;98726.13;;;24.71;67.25
47280;BME280;34064;44.942;0.008;2023-06-22T10:00:16;98721.97;;;24.75;67.21
47280;BME280;34064;44.942;0.008;2023-06-22T10:02:43;98719.44;;;24.80;67.22
47280;BME280;34064;44.942;0.008;2023-06-22T10:05:09;98730.09;;;24.88;67.04
47280;BME280;34064;44.942;0.008;2023-06-22T10:07:36;98729.03;;;24.89;67.04
47280;BME280;34064;44.942;0.008;2023-06-22T10:10:09;98732.38;;;24.91;66.77
47280;BME280;34064;44.942;0.008;2023-06-22T10:12:35;98731.09;;;24.94;66.81
47280;BME280;34064;44.942;0.008;2023-06-22T10:15:02;98736.50;;;25.01;66.65
47280;BME280;34064;44.942;0.008;2023-06-22T10:17:28;98739.44;;;25.06;66.68
47280;BME280;34064;44.942;0.008;2023-06-22T10:19:55;98736.72;;;25.06;66.60
47280;BME280;34064;44.942;0.008;2023-06-22T10:22:21;98742.81;;;25.01;66.41
47280;BME280;34064;44.942;0.008;2023-06-22T10:24:47;98744.66;;;25.01;66.66
47280;BME280;34064;44.942;0.008;2023-06-22T10:27:14;98748.66;;;25.05;66.58
47280;BME280;34064;44.942;0.008;2023-06-22T10:29:41;98749.69;;;25.04;66.48
47280;BME280;34064;44.942;0.008;2023-06-22T10:32:07;98750.56;;;24.98;66.54
47280;BME280;34064;44.942;0.008;2023-06-22T10:34:34;98757.44;;;24.94;66.44
47280;BME280;34064;44.942;0.008;2023-06-22T10:37:01;98760.78;;;24.96;66.49
47280;BME280;34064;44.942;0.008;2023-06-22T10:39:27;98753.84;;;25.06;66.37
47280;BME280;34064;44.942;0.008;2023-06-22T10:41:53;98753.59;;;25.21;66.24
47280;BME280;34064;44.942;0.008;2023-06-22T10:44:20;98748.97;;;25.42;65.89
47280;BME280;34064;44.942;0.008;2023-06-22T10:46:46;98742.41;;;25.57;65.47
47280;BME280;34064;44.942;0.008;2023-06-22T10:49:13;98748.88;;;25.56;65.02
47280;BME280;34064;44.942;0.008;2023-06-22T10:51:39;98755.81;;;25.51;64.97
47280;BME280;34064;44.942;0.008;2023-06-22T10:54:05;98761.28;;;25.38;65.19
47280;BME280;34064;44.942;0.008;2023-06-22T10:56:32;98766.53;;;25.33;65.55
47280;BME280;34064;44.942;0.008;2023-06-22T10:58:59;98769.91;;;25.28;65.48
47280;BME280;34064;44.942;0.008;2023-06-22T11:01:26;98775.31;;;25.28;65.32
47280;BME280;34064;44.942;0.008;2023-06-22T11:03:52;98771.75;;;25.34;65.23
47280;BME280;34064;44.942;0.008;2023-06-22T11:06:19;98763.97;;;25.51;65.12
47280;BME280;34064;44.942;0.008;2023-06-22T11:08:45;98749.16;;;25.86;64.69
47280;BME280;34064;44.942;0.008;2023-06-22T11:11:12;98736.41;;;26.19;64.85
47280;BME280;34064;44.942;0.008;2023-06-22T11:13:38;98729.25;;;26.50;63.18
47280;BME280;34064;44.942;0.008;2023-06-22T11:16:05;98722.38;;;26.91;62.95
47280;BME280;34064;44.942;0.008;2023-06-22T11:18:32;98709.66;;;27.03;62.76
47280;BME280;34064;44.942;0.008;2023-06-22T11:21:00;98722.16;;;27.11;62.75
47280;BME280;34064;44.942;0.008;2023-06-22T11:23:26;98706.47;;;27.25;62.12
47280;BME280;34064;44.942;0.008;2023-06-22T11:25:54;98726.31;;;27.14;62.52
47280;BME280;34064;44.942;0.008;2023-06-22T11:28:20;98722.31;;;26.98;62.60
47280;BME280;34064;44.942;0.008;2023-06-22T11:30:47;98741.34;;;26.79;62.43
47280;BME280;34064;44.942;0.008;2023-06-22T11:33:13;98742.63;;;26.76;62.59
47280;BME280;34064;44.942;0.008;2023-06-22T11:35:39;98740.75;;;26.96;62.43
47280;BME280;34064;44.942;0.008;2023-06-22T11:38:06;98742.19;;;26.98;62.21
47280;BME280;34064;44.942;0.008;2023-06-22T11:40:33;98740.75;;;26.96;62.03
47280;BME280;34064;44.942;0.008;2023-06-22T11:43:00;98736.97;;;26.97;61.61
47280;BME280;34064;44.942;0.008;2023-06-22T11:45:26;98736.44;;;27.06;61.89
47280;BME280;34064;44.942;0.008;2023-06-22T11:47:53;98729.47;;;27.29;62.19
47280;BME280;34064;44.942;0.008;2023-06-22T11:50:19;98718.72;;;27.53;61.54
47280;BME280;34064;44.942;0.008;2023-06-22T11:52:45;98716.00;;;27.53;61.44
47280;BME280;34064;44.942;0.008;2023-06-22T11:55:12;98721.72;;;27.63;61.61
47280;BME280;34064;44.942;0.008;2023-06-22T11:57:54;98713.81;;;27.74;61.53
47280;BME280;34064;44.942;0.008;2023-06-22T12:00:20;98708.78;;;27.89;60.14
47280;BME280;34064;44.942;0.008;2023-06-22T12:02:50;98696.84;;;28.14;59.52
47280;BME280;34064;44.942;0.008;2023-06-22T12:05:19;98692.38;;;28.31;59.25
47280;BME280;34064;44.942;0.008;2023-06-22T12:07:46;98688.22;;;28.41;58.88
47280;BME280;34064;44.942;0.008;2023-06-22T12:10:13;98679.78;;;28.54;58.04
47280;BME280;34064;44.942;0.008;2023-06-22T12:12:40;98687.03;;;28.72;58.53
47280;BME280;34064;44.942;0.008;2023-06-22T12:15:06;98679.78;;;28.90;58.24
47280;BME280;34064;44.942;0.008;2023-06-22T12:17:34;98687.50;;;28.93;57.55
47280;BME280;34064;44.942;0.008;2023-06-22T12:20:00;98698.31;;;29.00;57.44
47280;BME280;34064;44.942;0.008;2023-06-22T12:22:28;98686.50;;;29.11;56.76
47280;BME280;34064;44.942;0.008;2023-06-22T12:24:54;98679.00;;;29.18;56.99
47280;BME280;34064;44.942;0.008;2023-06-22T12:27:20;98673.72;;;29.29;56.33
47280;BME280;34064;44.942;0.008;2023-06-22T12:29:47;98672.31;;;29.38;54.98
47280;BME280;34064;44.942;0.008;2023-06-22T12:32:14;98675.28;;;29.24;53.98
47280;BME280;34064;44.942;0.008;2023-06-22T12:34:42;98684.84;;;29.10;54.26
47280;BME280;34064;44.942;0.008;2023-06-22T12:37:09;98679.59;;;29.20;54.78
47280;BME280;34064;44.942;0.008;2023-06-22T12:39:35;98681.13;;;29.16;55.53
47280;BME280;34064;44.942;0.008;2023-06-22T12:42:02;98668.75;;;29.37;55.60
47280;BME280;34064;44.942;0.008;2023-06-22T12:44:28;98672.03;;;29.51;54.08
47280;BME280;34064;44.942;0.008;2023-06-22T12:46:55;98670.03;;;29.64;54.10
47280;BME280;34064;44.942;0.008;2023-06-22T12:49:21;98673.06;;;29.79;53.80
47280;BME280;34064;44.942;0.008;2023-06-22T12:51:47;98670.41;;;29.84;52.29
47280;BME280;34064;44.942;0.008;2023-06-22T12:54:14;98665.53;;;29.86;53.05
47280;BME280;34064;44.942;0.008;2023-06-22T12:56:40;98675.50;;;29.93;52.38
47280;BME280;34064;44.942;0.008;2023-06-22T12:59:08;98684.38;;;30.00;52.35
47280;BME280;34064;44.942;0.008;2023-06-22T13:01:34;98681.06;;;30.15;51.57
47280;BME280;34064;44.942;0.008;2023-06-22T13:04:00;98683.53;;;30.33;50.18
47280;BME280;34064;44.942;0.008;2023-06-22T13:06:27;98675.56;;;30.49;51.07
47280;BME280;34064;44.942;0.008;2023-06-22T13:08:53;98671.41;;;30.63;51.52